KDDC

Dodge City Regional Airport

Dodge City, Kansas, USA
METAR KDDC 191852Z AUTO 35010KT 10SM CLR 23/07 A3013 RMK AO2 SLP188 T02280067
Observed Flight Rules
Oct-19 @ 18:52 UTC (59 minutes ago) Visual Flight Rules
Wind Visibility Clouds
350° at 10 knots 10 miles
  • Clear skies
Temperatures Readings
Current 23°C / 73°F
Dewpoint 7°C / 45°F
Humidity 36%
Altimeter 30.13" Hg
Pressure 1018.8 hPa
Elevation 789
METAR KDDC 191852Z AUTO 35010KT 10SM CLR 23/07 A3013 RMK AO2 SLP188 T02280067
Observed Flight Rules
Oct-19 @ 18:52 UTC
(59 minutes ago)
VFR
Wind Visibility
350° at 10 knots 10 miles
Clouds
  • Clear skies
Temperature Dewpoint
23°C / 73°F 7°C / 45°F
Humidity Altimeter Pressure
36% 30.13" Hg 1018.8 hPa